sensor_id;sensor_type;location;lat;lon;timestamp;pressure;altitude;pressure_sealevel;temperature;humidity
6449;BME280;3257;52.298;13.690;2022-08-01T00:00:31;75595.19;;;-144.77;54.26
6449;BME280;3257;52.298;13.690;2022-08-01T00:02:57;75589.22;;;-144.77;53.75
6449;BME280;3257;52.298;13.690;2022-08-01T00:05:24;75581.28;;;-144.77;53.74
6449;BME280;3257;52.298;13.690;2022-08-01T00:07:51;75585.25;;;-144.77;54.09
6449;BME280;3257;52.298;13.690;2022-08-01T00:10:18;75597.19;;;-144.77;54.60
6449;BME280;3257;52.298;13.690;2022-08-01T00:12:45;75605.13;;;-144.77;54.78
6449;BME280;3257;52.298;13.690;2022-08-01T00:15:14;75589.22;;;-144.77;54.20
6449;BME280;3257;52.298;13.690;2022-08-01T00:17:42;75617.03;;;-144.77;54.29
6449;BME280;3257;52.298;13.690;2022-08-01T00:20:12;75603.13;;;-144.77;53.81
6449;BME280;3257;52.298;13.690;2022-08-01T00:22:39;75611.09;;;-144.77;53.89
6449;BME280;3257;52.298;13.690;2022-08-01T00:25:06;75597.19;;;-144.77;53.87
6449;BME280;3257;52.298;13.690;2022-08-01T00:27:33;75601.16;;;-144.77;53.88
6449;BME280;3257;52.298;13.690;2022-08-01T00:30:04;75609.09;;;-144.77;54.26
6449;BME280;3257;52.298;13.690;2022-08-01T00:32:40;75619.03;;;-144.77;54.28
6449;BME280;3257;52.298;13.690;2022-08-01T00:35:07;75617.03;;;-144.77;54.32
6449;BME280;3257;52.298;13.690;2022-08-01T00:37:34;75621.03;;;-144.77;54.57
6449;BME280;3257;52.298;13.690;2022-08-01T00:40:00;75630.94;;;-144.77;54.73
6449;BME280;3257;52.298;13.690;2022-08-01T00:42:27;75638.91;;;-144.77;55.14
6449;BME280;3257;52.298;13.690;2022-08-01T00:44:53;75630.94;;;-144.77;54.76
6449;BME280;3257;52.298;13.690;2022-08-01T00:47:20;75650.81;;;-144.77;55.39
6449;BME280;3257;52.298;13.690;2022-08-01T00:49:46;75660.75;;;-144.77;55.62
6449;BME280;3257;52.298;13.690;2022-08-01T00:52:13;75660.75;;;-144.77;55.72
6449;BME280;3257;52.298;13.690;2022-08-01T00:54:40;75648.84;;;-144.77;55.79
6449;BME280;3257;52.298;13.690;2022-08-01T00:57:18;75656.78;;;-144.77;56.31
6449;BME280;3257;52.298;13.690;2022-08-01T01:00:34;75662.75;;;-144.77;56.70
6449;BME280;3257;52.298;13.690;2022-08-01T01:03:22;75652.81;;;-144.77;56.74
6449;BME280;3257;52.298;13.690;2022-08-01T01:11:57;75670.69;;;-144.77;57.07
6449;BME280;3257;52.298;13.690;2022-08-01T01:14:42;75664.72;;;-144.77;57.22
6449;BME280;3257;52.298;13.690;2022-08-01T01:17:17;75658.75;;;-144.77;57.03
6449;BME280;3257;52.298;13.690;2022-08-01T01:20:08;75672.66;;;-144.77;57.89
6449;BME280;3257;52.298;13.690;2022-08-01T01:25:49;75672.66;;;-144.77;57.90
6449;BME280;3257;52.298;13.690;2022-08-01T01:28:29;75680.63;;;-144.77;58.37
6449;BME280;3257;52.298;13.690;2022-08-01T01:30:57;75680.63;;;-144.77;59.07
6449;BME280;3257;52.298;13.690;2022-08-01T01:33:26;75688.56;;;-144.77;58.74
6449;BME280;3257;52.298;13.690;2022-08-01T01:36:01;75676.66;;;-144.77;59.27
6449;BME280;3257;52.298;13.690;2022-08-01T01:38:41;75680.63;;;-144.77;59.46
6449;BME280;3257;52.298;13.690;2022-08-01T01:41:11;75680.63;;;-144.77;59.45
6449;BME280;3257;52.298;13.690;2022-08-01T01:43:39;75680.63;;;-144.77;60.16
6449;BME280;3257;52.298;13.690;2022-08-01T01:46:07;75694.53;;;-144.77;60.86
6449;BME280;3257;52.298;13.690;2022-08-01T01:48:36;75678.63;;;-144.77;60.36
6449;BME280;3257;52.298;13.690;2022-08-01T01:51:21;75704.47;;;-144.77;60.89
6449;BME280;3257;52.298;13.690;2022-08-01T01:53:49;75716.38;;;-144.77;61.46
6449;BME280;3257;52.298;13.690;2022-08-01T01:56:20;75722.34;;;-144.77;61.47
6449;BME280;3257;52.298;13.690;2022-08-01T01:58:51;75722.34;;;-144.77;61.86
6449;BME280;3257;52.298;13.690;2022-08-01T02:01:21;75724.31;;;-144.77;62.21
6449;BME280;3257;52.298;13.690;2022-08-01T02:04:11;75716.38;;;-144.77;61.98
6449;BME280;3257;52.298;13.690;2022-08-01T02:06:38;75728.31;;;-144.77;62.82
6449;BME280;3257;52.298;13.690;2022-08-01T02:09:06;75732.28;;;-144.77;63.72
6449;BME280;3257;52.298;13.690;2022-08-01T02:11:36;75732.28;;;-144.77;63.90
6449;BME280;3257;52.298;13.690;2022-08-01T02:14:25;75740.22;;;-144.77;64.60
6449;BME280;3257;52.298;13.690;2022-08-01T02:16:54;75754.13;;;-144.77;64.65
6449;BME280;3257;52.298;13.690;2022-08-01T02:19:24;75748.16;;;-144.77;64.89
6449;BME280;3257;52.298;13.690;2022-08-01T02:22:18;75764.06;;;-144.77;65.04
6449;BME280;3257;52.298;13.690;2022-08-01T02:25:00;75777.97;;;-144.77;65.74
6449;BME280;3257;52.298;13.690;2022-08-01T02:27:34;75775.97;;;-144.77;66.00
6449;BME280;3257;52.298;13.690;2022-08-01T02:30:05;75791.88;;;-144.77;66.14
6449;BME280;3257;52.298;13.690;2022-08-01T02:32:41;75805.78;;;-144.77;67.39
6449;BME280;3257;52.298;13.690;2022-08-01T02:35:20;75807.75;;;-144.77;67.33
6449;BME280;3257;52.298;13.690;2022-08-01T02:37:49;75815.72;;;-144.77;68.02
6449;BME280;3257;52.298;13.690;2022-08-01T02:40:17;75829.63;;;-144.77;68.34
6449;BME280;3257;52.298;13.690;2022-08-01T02:42:49;75821.69;;;-144.77;69.14
6449;BME280;3257;52.298;13.690;2022-08-01T02:45:24;75835.59;;;-144.77;69.20
6449;BME280;3257;52.298;13.690;2022-08-01T02:47:55;75839.56;;;-144.77;69.13
6449;BME280;3257;52.298;13.690;2022-08-01T02:50:24;75843.53;;;-144.77;69.74
6449;BME280;3257;52.298;13.690;2022-08-01T02:52:53;75851.47;;;-144.77;70.12
6449;BME280;3257;52.298;13.690;2022-08-01T02:55:21;75851.47;;;-144.77;70.81
6449;BME280;3257;52.298;13.690;2022-08-01T02:57:49;75857.44;;;-144.77;70.96
6449;BME280;3257;52.298;13.690;2022-08-01T03:00:26;75859.41;;;-144.77;70.84
6449;BME280;3257;52.298;13.690;2022-08-01T03:02:55;75877.31;;;-144.77;71.22
6449;BME280;3257;52.298;13.690;2022-08-01T03:05:24;75879.28;;;-144.77;71.88
6449;BME280;3257;52.298;13.690;2022-08-01T03:07:52;75885.25;;;-144.77;72.47
6449;BME280;3257;52.298;13.690;2022-08-01T03:10:21;75895.19;;;-144.77;72.79
6449;BME280;3257;52.298;13.690;2022-08-01T03:12:49;75889.22;;;-144.77;73.65
6449;BME280;3257;52.298;13.690;2022-08-01T03:15:17;75899.16;;;-144.77;73.80
6449;BME280;3257;52.298;13.690;2022-08-01T03:17:46;75899.16;;;-144.77;73.66
6449;BME280;3257;52.298;13.690;2022-08-01T03:20:15;75915.06;;;-144.77;73.68
6449;BME280;3257;52.298;13.690;2022-08-01T03:22:44;75925.00;;;-144.77;74.44
6449;BME280;3257;52.298;13.690;2022-08-01T03:25:13;75923.00;;;-144.77;74.77
6449;BME280;3257;52.298;13.690;2022-08-01T03:27:43;75911.06;;;-144.77;74.53
6449;BME280;3257;52.298;13.690;2022-08-01T03:30:11;75915.06;;;-144.77;74.89
6449;BME280;3257;52.298;13.690;2022-08-01T03:32:38;75919.03;;;-144.77;75.63
6449;BME280;3257;52.298;13.690;2022-08-01T03:35:05;75925.00;;;-144.77;76.12
6449;BME280;3257;52.298;13.690;2022-08-01T03:37:34;75925.00;;;-144.77;75.65
6449;BME280;3257;52.298;13.690;2022-08-01T03:40:35;75938.91;;;-144.77;76.19
6449;BME280;3257;52.298;13.690;2022-08-01T03:43:07;75952.81;;;-144.77;76.43
6449;BME280;3257;52.298;13.690;2022-08-01T03:45:41;75946.84;;;-144.77;77.44
6449;BME280;3257;52.298;13.690;2022-08-01T03:48:16;75954.78;;;-144.77;78.25
6449;BME280;3257;52.298;13.690;2022-08-01T03:50:49;75950.81;;;-144.77;78.68
6449;BME280;3257;52.298;13.690;2022-08-01T03:53:20;75946.84;;;-144.77;78.33
6449;BME280;3257;52.298;13.690;2022-08-01T03:55:49;75950.81;;;-144.77;78.23
6449;BME280;3257;52.298;13.690;2022-08-01T03:58:17;75950.81;;;-144.77;78.50
6449;BME280;3257;52.298;13.690;2022-08-01T04:00:44;75950.81;;;-144.77;78.56
6449;BME280;3257;52.298;13.690;2022-08-01T04:03:12;75952.81;;;-144.77;78.28
6449;BME280;3257;52.298;13.690;2022-08-01T04:05:43;75954.78;;;-144.77;78.87
6449;BME280;3257;52.298;13.690;2022-08-01T04:08:10;75938.91;;;-144.77;78.47
6449;BME280;3257;52.298;13.690;2022-08-01T04:10:37;75932.94;;;-144.77;78.27
6449;BME280;3257;52.298;13.690;2022-08-01T04:13:04;75919.03;;;-144.77;77.99
6449;BME280;3257;52.298;13.690;2022-08-01T04:15:30;75907.09;;;-144.77;77.44
6449;BME280;3257;52.298;13.690;2022-08-01T04:17:57;75891.22;;;-144.77;77.16
6449;BME280;3257;52.298;13.690;2022-08-01T04:20:24;75879.28;;;-144.77;76.59
6449;BME280;3257;52.298;13.690;2022-08-01T04:22:51;75871.34;;;-144.77;76.30
6449;BME280;3257;52.298;13.690;2022-08-01T04:25:25;75861.41;;;-144.77;75.94
6449;BME280;3257;52.298;13.690;2022-08-01T04:27:54;75845.50;;;-144.77;75.47
6449;BME280;3257;52.298;13.690;2022-08-01T04:30:24;75835.59;;;-144.77;75.50
6449;BME280;3257;52.298;13.690;2022-08-01T04:32:54;75845.50;;;-144.77;74.94
6449;BME280;3257;52.298;13.690;2022-08-01T04:35:21;75837.56;;;-144.77;75.04
6449;BME280;3257;52.298;13.690;2022-08-01T04:38:10;75837.56;;;-144.77;74.67
6449;BME280;3257;52.298;13.690;2022-08-01T04:40:40;75835.59;;;-144.77;74.43
6449;BME280;3257;52.298;13.690;2022-08-01T04:43:07;75823.66;;;-144.77;73.72
6449;BME280;3257;52.298;13.690;2022-08-01T04:45:34;75831.59;;;-144.77;74.11
6449;BME280;3257;52.298;13.690;2022-08-01T04:48:01;75819.69;;;-144.77;73.68
6449;BME280;3257;52.298;13.690;2022-08-01T04:50:34;75807.75;;;-144.77;73.17
6449;BME280;3257;52.298;13.690;2022-08-01T04:53:01;75791.88;;;-144.77;72.34
6449;BME280;3257;52.298;13.690;2022-08-01T04:55:29;75789.88;;;-144.77;72.39
6449;BME280;3257;52.298;13.690;2022-08-01T04:57:57;75783.94;;;-144.77;71.56
6449;BME280;3257;52.298;13.690;2022-08-01T05:00:25;75779.94;;;-144.77;71.02
6449;BME280;3257;52.298;13.690;2022-08-01T05:02:52;75754.13;;;-144.77;70.97
6449;BME280;3257;52.298;13.690;2022-08-01T05:05:18;75768.03;;;-144.77;71.28
6449;BME280;3257;52.298;13.690;2022-08-01T05:07:47;75777.97;;;-144.77;71.66
6449;BME280;3257;52.298;13.690;2022-08-01T05:10:13;75781.94;;;-144.77;71.21
6449;BME280;3257;52.298;13.690;2022-08-01T05:12:40;75775.97;;;-144.77;71.12
6449;BME280;3257;52.298;13.690;2022-08-01T05:15:07;75774.00;;;-144.77;71.56
6449;BME280;3257;52.298;13.690;2022-08-01T05:17:40;75777.97;;;-144.77;71.67
6449;BME280;3257;52.298;13.690;2022-08-01T05:20:09;75783.94;;;-144.77;72.34
6449;BME280;3257;52.298;13.690;2022-08-01T05:22:36;75787.91;;;-144.77;72.72
6449;BME280;3257;52.298;13.690;2022-08-01T05:25:03;75781.94;;;-144.77;73.04
6449;BME280;3257;52.298;13.690;2022-08-01T05:27:32;75781.94;;;-144.77;73.09
6449;BME280;3257;52.298;13.690;2022-08-01T05:29:59;75787.91;;;-144.77;73.44
6449;BME280;3257;52.298;13.690;2022-08-01T05:32:25;75793.84;;;-144.77;73.50
6449;BME280;3257;52.298;13.690;2022-08-01T05:34:53;75805.78;;;-144.77;73.84
6449;BME280;3257;52.298;13.690;2022-08-01T05:37:20;75793.84;;;-144.77;73.66
6449;BME280;3257;52.298;13.690;2022-08-01T05:39:46;75805.78;;;-144.77;74.28
6449;BME280;3257;52.298;13.690;2022-08-01T05:42:13;75791.88;;;-144.77;74.37
6449;BME280;3257;52.298;13.690;2022-08-01T05:44:40;75789.88;;;-144.77;74.22
6449;BME280;3257;52.298;13.690;2022-08-01T05:47:06;75785.91;;;-144.77;74.04
6449;BME280;3257;52.298;13.690;2022-08-01T05:49:33;75781.94;;;-144.77;73.79
6449;BME280;3257;52.298;13.690;2022-08-01T05:52:00;75779.94;;;-144.77;73.87
6449;BME280;3257;52.298;13.690;2022-08-01T05:54:29;75793.84;;;-144.77;74.17
6449;BME280;3257;52.298;13.690;2022-08-01T05:57:04;75779.94;;;-144.77;74.11
6449;BME280;3257;52.298;13.690;2022-08-01T05:59:31;75795.84;;;-144.77;74.76
6449;BME280;3257;52.298;13.690;2022-08-01T06:01:58;75791.88;;;-144.77;74.43
6449;BME280;3257;52.298;13.690;2022-08-01T06:04:25;75789.88;;;-144.77;74.77
6449;BME280;3257;52.298;13.690;2022-08-01T06:06:51;75783.94;;;-144.77;74.82
6449;BME280;3257;52.298;13.690;2022-08-01T06:09:18;75781.94;;;-144.77;74.60
6449;BME280;3257;52.298;13.690;2022-08-01T06:11:44;75764.06;;;-144.77;74.49
6449;BME280;3257;52.298;13.690;2022-08-01T06:14:11;75750.16;;;-144.77;74.59
6449;BME280;3257;52.298;13.690;2022-08-01T06:16:38;75722.34;;;-144.77;73.94
6449;BME280;3257;52.298;13.690;2022-08-01T06:19:04;75714.41;;;-144.77;73.54
6449;BME280;3257;52.298;13.690;2022-08-01T06:21:31;75686.56;;;-144.77;72.82
6449;BME280;3257;52.298;13.690;2022-08-01T06:23:57;75680.63;;;-144.77;71.97
6449;BME280;3257;52.298;13.690;2022-08-01T06:26:24;75684.59;;;-144.77;72.57
6449;BME280;3257;52.298;13.690;2022-08-01T06:28:50;75676.66;;;-144.77;72.23
6449;BME280;3257;52.298;13.690;2022-08-01T06:31:17;75686.56;;;-144.77;72.48
6449;BME280;3257;52.298;13.690;2022-08-01T06:33:44;75684.59;;;-144.77;72.92
6449;BME280;3257;52.298;13.690;2022-08-01T06:36:11;75690.56;;;-144.77;72.65
6449;BME280;3257;52.298;13.690;2022-08-01T06:38:37;75690.56;;;-144.77;72.57
6449;BME280;3257;52.298;13.690;2022-08-01T06:41:04;75710.41;;;-144.77;73.19
6449;BME280;3257;52.298;13.690;2022-08-01T06:43:30;75708.44;;;-144.77;73.34
6449;BME280;3257;52.298;13.690;2022-08-01T06:45:57;75694.53;;;-144.77;72.96
6449;BME280;3257;52.298;13.690;2022-08-01T06:48:24;75678.63;;;-144.77;72.93
6449;BME280;3257;52.298;13.690;2022-08-01T06:50:50;75660.75;;;-144.77;72.46
6449;BME280;3257;52.298;13.690;2022-08-01T06:53:37;75654.78;;;-144.77;72.13
6449;BME280;3257;52.298;13.690;2022-08-01T06:56:05;75625.00;;;-144.77;72.17
6449;BME280;3257;52.298;13.690;2022-08-01T06:58:33;75626.97;;;-144.77;71.28
6449;BME280;3257;52.298;13.690;2022-08-01T07:01:02;75611.09;;;-144.77;70.49
6449;BME280;3257;52.298;13.690;2022-08-01T07:03:30;75621.03;;;-144.77;70.71
6449;BME280;3257;52.298;13.690;2022-08-01T07:06:17;75621.03;;;-144.77;70.72
6449;BME280;3257;52.298;13.690;2022-08-01T07:08:43;75621.03;;;-144.77;70.31
6449;BME280;3257;52.298;13.690;2022-08-01T07:11:10;75648.84;;;-144.77;71.12
6449;BME280;3257;52.298;13.690;2022-08-01T07:13:36;75636.91;;;-144.77;70.74
6449;BME280;3257;52.298;13.690;2022-08-01T07:16:12;75621.03;;;-144.77;70.44
6449;BME280;3257;52.298;13.690;2022-08-01T07:18:38;75623.00;;;-144.77;70.37
6449;BME280;3257;52.298;13.690;2022-08-01T07:21:05;75625.00;;;-144.77;69.48
6449;BME280;3257;52.298;13.690;2022-08-01T07:23:42;75605.13;;;-144.77;69.31
6449;BME280;3257;52.298;13.690;2022-08-01T07:26:11;75599.16;;;-144.77;69.12
6449;BME280;3257;52.298;13.690;2022-08-01T07:28:39;75591.22;;;-144.77;68.67
6449;BME280;3257;52.298;13.690;2022-08-01T07:31:09;75587.25;;;-144.77;68.59
6449;BME280;3257;52.298;13.690;2022-08-01T07:33:36;75593.22;;;-144.77;68.96
6449;BME280;3257;52.298;13.690;2022-08-01T07:36:15;75605.13;;;-144.77;68.94
6449;BME280;3257;52.298;13.690;2022-08-01T07:38:42;75628.97;;;-144.77;70.12
6449;BME280;3257;52.298;13.690;2022-08-01T07:41:09;75636.91;;;-144.77;70.53
6449;BME280;3257;52.298;13.690;2022-08-01T07:43:36;75672.66;;;-144.77;72.37
6449;BME280;3257;52.298;13.690;2022-08-01T07:46:03;75674.66;;;-144.77;72.47
6449;BME280;3257;52.298;13.690;2022-08-01T07:48:30;75656.78;;;-144.77;72.22
6449;BME280;3257;52.298;13.690;2022-08-01T07:50:57;75642.88;;;-144.77;71.53
6449;BME280;3257;52.298;13.690;2022-08-01T07:53:23;75617.03;;;-144.77;70.91
6449;BME280;3257;52.298;13.690;2022-08-01T07:55:50;75587.25;;;-144.77;69.96
6449;BME280;3257;52.298;13.690;2022-08-01T07:58:17;75603.13;;;-144.77;69.39
6449;BME280;3257;52.298;13.690;2022-08-01T08:00:43;75581.28;;;-144.77;68.81
6449;BME280;3257;52.298;13.690;2022-08-01T08:03:10;75579.31;;;-144.77;69.14
6449;BME280;3257;52.298;13.690;2022-08-01T08:05:37;75563.41;;;-144.77;68.44
6449;BME280;3257;52.298;13.690;2022-08-01T08:08:23;75557.44;;;-144.77;68.07
6449;BME280;3257;52.298;13.690;2022-08-01T08:10:50;75577.31;;;-144.77;68.52
6449;BME280;3257;52.298;13.690;2022-08-01T08:13:16;75563.41;;;-144.77;68.62
6449;BME280;3257;52.298;13.690;2022-08-01T08:15:43;75557.44;;;-144.77;67.99
6449;BME280;3257;52.298;13.690;2022-08-01T08:18:14;75585.25;;;-144.77;67.89
6449;BME280;3257;52.298;13.690;2022-08-01T08:20:40;75561.41;;;-144.77;67.69
6449;BME280;3257;52.298;13.690;2022-08-01T08:23:07;75585.25;;;-144.77;68.01
6449;BME280;3257;52.298;13.690;2022-08-01T08:26:10;75569.38;;;-144.77;68.13
6449;BME280;3257;52.298;13.690;2022-08-01T08:28:37;75569.38;;;-144.77;67.32
6449;BME280;3257;52.298;13.690;2022-08-01T08:31:05;75573.34;;;-144.77;67.48
6449;BME280;3257;52.298;13.690;2022-08-01T08:33:32;75559.44;;;-144.77;67.52
6449;BME280;3257;52.298;13.690;2022-08-01T08:35:59;75577.31;;;-144.77;68.12
6449;BME280;3257;52.298;13.690;2022-08-01T08:38:26;75601.16;;;-144.77;69.39
6449;BME280;3257;52.298;13.690;2022-08-01T08:40:56;75623.00;;;-144.77;71.48
6449;BME280;3257;52.298;13.690;2022-08-01T08:43:24;75636.91;;;-144.77;71.83
6449;BME280;3257;52.298;13.690;2022-08-01T08:45:52;75636.91;;;-144.77;72.47
6449;BME280;3257;52.298;13.690;2022-08-01T08:48:25;75642.88;;;-144.77;73.37
6449;BME280;3257;52.298;13.690;2022-08-01T08:50:53;75638.91;;;-144.77;73.89
6449;BME280;3257;52.298;13.690;2022-08-01T08:53:21;75632.94;;;-144.77;74.07
6449;BME280;3257;52.298;13.690;2022-08-01T08:55:48;75632.94;;;-144.77;73.67
6449;BME280;3257;52.298;13.690;2022-08-01T08:58:26;75597.19;;;-144.77;73.10
6449;BME280;3257;52.298;13.690;2022-08-01T09:00:57;75565.41;;;-144.77;71.81
6449;BME280;3257;52.298;13.690;2022-08-01T09:03:24;75513.75;;;-144.77;70.17
6449;BME280;3257;52.298;13.690;2022-08-01T09:05:51;75531.63;;;-144.77;68.88
6449;BME280;3257;52.298;13.690;2022-08-01T09:08:17;75513.75;;;-144.77;69.29
6449;BME280;3257;52.298;13.690;2022-08-01T09:10:44;75523.69;;;-144.77;68.78
6449;BME280;3257;52.298;13.690;2022-08-01T09:13:12;75531.63;;;-144.77;69.04
6449;BME280;3257;52.298;13.690;2022-08-01T09:15:44;75585.25;;;-144.77;70.48
6449;BME280;3257;52.298;13.690;2022-08-01T09:21:20;75652.81;;;-144.77;69.54
6449;BME280;3257;52.298;13.690;2022-08-01T09:23:52;75636.91;;;-144.77;69.04
6449;BME280;3257;52.298;13.690;2022-08-01T09:26:35;75613.06;;;-144.77;67.80
6449;BME280;3257;52.298;13.690;2022-08-01T09:29:05;75577.31;;;-144.77;66.90
6449;BME280;3257;52.298;13.690;2022-08-01T09:31:43;75571.34;;;-144.77;66.04
6449;BME280;3257;52.298;13.690;2022-08-01T09:34:13;75589.22;;;-144.77;66.04
6449;BME280;3257;52.298;13.690;2022-08-01T09:36:46;75607.13;;;-144.77;65.37
6449;BME280;3257;52.298;13.690;2022-08-01T09:39:15;75553.47;;;-144.77;63.92
6449;BME280;3257;52.298;13.690;2022-08-01T09:41:41;75493.88;;;-144.77;62.04
6449;BME280;3257;52.298;13.690;2022-08-01T09:44:08;75442.22;;;-144.77;61.74
6449;BME280;3257;52.298;13.690;2022-08-01T09:46:34;75436.28;;;-144.77;61.87
6449;BME280;3257;52.298;13.690;2022-08-01T09:49:05;75458.13;;;-144.77;63.56
6449;BME280;3257;52.298;13.690;2022-08-01T09:51:37;75519.69;;;-144.77;64.43
6449;BME280;3257;52.298;13.690;2022-08-01T09:54:32;75479.97;;;-144.77;63.42
6449;BME280;3257;52.298;13.690;2022-08-01T09:57:14;75507.78;;;-144.77;61.98
6449;BME280;3257;52.298;13.690;2022-08-01T09:59:46;75519.69;;;-144.77;61.86
6449;BME280;3257;52.298;13.690;2022-08-01T10:02:33;75535.59;;;-144.77;62.07
6449;BME280;3257;52.298;13.690;2022-08-01T10:05:01;75577.31;;;-144.77;61.08
6449;BME280;3257;52.298;13.690;2022-08-01T10:07:35;75619.03;;;-144.77;61.01
6449;BME280;3257;52.298;13.690;2022-08-01T10:10:14;75628.97;;;-144.77;61.21
6449;BME280;3257;52.298;13.690;2022-08-01T10:12:42;75632.94;;;-144.77;61.14
6449;BME280;3257;52.298;13.690;2022-08-01T10:15:11;75630.94;;;-144.77;61.12
6449;BME280;3257;52.298;13.690;2022-08-01T10:17:46;75638.91;;;-144.77;61.36
6449;BME280;3257;52.298;13.690;2022-08-01T10:20:18;75621.03;;;-144.77;60.68
6449;BME280;3257;52.298;13.690;2022-08-01T10:22:59;75628.97;;;-144.77;61.19
6449;BME280;3257;52.298;13.690;2022-08-01T10:25:35;75632.94;;;-144.77;61.50
6449;BME280;3257;52.298;13.690;2022-08-01T10:28:16;75603.13;;;-144.77;61.45
6449;BME280;3257;52.298;13.690;2022-08-01T10:30:47;75569.38;;;-144.77;59.63
6449;BME280;3257;52.298;13.690;2022-08-01T10:33:15;75527.66;;;-144.77;60.62
6449;BME280;3257;52.298;13.690;2022-08-01T10:36:04;75460.09;;;-144.77;57.19
6449;BME280;3257;52.298;13.690;2022-08-01T10:38:34;75444.22;;;-144.77;56.26
6449;BME280;3257;52.298;13.690;2022-08-01T10:41:03;75428.31;;;-144.77;55.27
6449;BME280;3257;52.298;13.690;2022-08-01T10:43:33;75448.19;;;-144.77;54.39
6449;BME280;3257;52.298;13.690;2022-08-01T10:46:02;75458.13;;;-144.77;55.26
6449;BME280;3257;52.298;13.690;2022-08-01T10:48:39;75487.91;;;-144.77;54.46
6449;BME280;3257;52.298;13.690;2022-08-01T10:51:09;75523.69;;;-144.77;55.93
6449;BME280;3257;52.298;13.690;2022-08-01T10:53:52;75543.53;;;-144.77;56.69
6449;BME280;3257;52.298;13.690;2022-08-01T10:56:22;75561.41;;;-144.77;57.14
6449;BME280;3257;52.298;13.690;2022-08-01T10:59:01;75603.13;;;-144.77;58.13
6449;BME280;3257;52.298;13.690;2022-08-01T11:01:40;75656.78;;;-144.77;59.27
6449;BME280;3257;52.298;13.690;2022-08-01T11:04:13;75700.47;;;-144.77;60.33
6449;BME280;3257;52.298;13.690;2022-08-01T11:06:48;75658.75;;;-144.77;59.75
6449;BME280;3257;52.298;13.690;2022-08-01T11:09:22;75656.78;;;-144.77;60.96
6449;BME280;3257;52.298;13.690;2022-08-01T11:17:32;75595.19;;;-144.77;57.49
6449;BME280;3257;52.298;13.690;2022-08-01T11:20:11;75617.03;;;-144.77;57.46
6449;BME280;3257;52.298;13.690;2022-08-01T11:28:26;75644.84;;;-144.77;57.81
6449;BME280;3257;52.298;13.690;2022-08-01T11:39:27;75662.75;;;-144.77;57.69
6449;BME280;3257;52.298;13.690;2022-08-01T11:41:40;75670.69;;;-144.77;57.98
6449;BME280;3257;52.298;13.690;2022-08-01T11:44:12;75664.72;;;-144.77;58.11
6449;BME280;3257;52.298;13.690;2022-08-01T11:52:24;75658.75;;;-144.77;58.93
6449;BME280;3257;52.298;13.690;2022-08-01T11:55:05;75664.72;;;-144.77;59.04
6449;BME280;3257;52.298;13.690;2022-08-01T11:57:38;75650.81;;;-144.77;59.30
6449;BME280;3257;52.298;13.690;2022-08-01T12:00:15;75642.88;;;-144.77;59.84
6449;BME280;3257;52.298;13.690;2022-08-01T12:02:45;75644.84;;;-144.77;59.04
6449;BME280;3257;52.298;13.690;2022-08-01T12:05:14;75658.75;;;-144.77;58.34
6449;BME280;3257;52.298;13.690;2022-08-01T12:07:43;75664.72;;;-144.77;58.54
6449;BME280;3257;52.298;13.690;2022-08-01T12:10:12;75654.78;;;-144.77;58.44
6449;BME280;3257;52.298;13.690;2022-08-01T12:12:48;75666.72;;;-144.77;58.79
6449;BME280;3257;52.298;13.690;2022-08-01T12:15:15;75654.78;;;-144.77;58.68
6449;BME280;3257;52.298;13.690;2022-08-01T12:17:50;75666.72;;;-144.77;59.39
6449;BME280;3257;52.298;13.690;2022-08-01T12:20:25;75668.69;;;-144.77;59.31
6449;BME280;3257;52.298;13.690;2022-08-01T12:22:57;75666.72;;;-144.77;59.43
6449;BME280;3257;52.298;13.690;2022-08-01T12:25:28;75662.75;;;-144.77;59.52
6449;BME280;3257;52.298;13.690;2022-08-01T12:27:59;75708.44;;;-144.77;60.92
6449;BME280;3257;52.298;13.690;2022-08-01T12:30:27;75754.13;;;-144.77;61.39
6449;BME280;3257;52.298;13.690;2022-08-01T12:32:54;75752.13;;;-144.77;61.71
6449;BME280;3257;52.298;13.690;2022-08-01T12:35:23;75750.16;;;-144.77;62.14
6449;BME280;3257;52.298;13.690;2022-08-01T12:37:56;75774.00;;;-144.77;62.77
6449;BME280;3257;52.298;13.690;2022-08-01T12:40:28;75774.00;;;-144.77;63.73
6449;BME280;3257;52.298;13.690;2022-08-01T12:42:56;75795.84;;;-144.77;65.89
6449;BME280;3257;52.298;13.690;2022-08-01T12:45:25;75805.78;;;-144.77;66.70
6449;BME280;3257;52.298;13.690;2022-08-01T12:47:58;75791.88;;;-144.77;66.56
6449;BME280;3257;52.298;13.690;2022-08-01T12:50:28;75775.97;;;-144.77;66.39
6449;BME280;3257;52.298;13.690;2022-08-01T12:52:57;75783.94;;;-144.77;66.24
6449;BME280;3257;52.298;13.690;2022-08-01T12:55:26;75752.13;;;-144.77;65.64
6449;BME280;3257;52.298;13.690;2022-08-01T12:58:18;75718.38;;;-144.77;65.82
6449;BME280;3257;52.298;13.690;2022-08-01T13:00:47;75710.41;;;-144.77;64.17
6449;BME280;3257;52.298;13.690;2022-08-01T13:03:17;75690.56;;;-144.77;63.46
6449;BME280;3257;52.298;13.690;2022-08-01T13:08:18;75634.94;;;-144.77;61.42
6449;BME280;3257;52.298;13.690;2022-08-01T13:10:46;75597.19;;;-144.77;61.21
6449;BME280;3257;52.298;13.690;2022-08-01T13:13:15;75571.34;;;-144.77;59.95
6449;BME280;3257;52.298;13.690;2022-08-01T13:16:03;75525.66;;;-144.77;57.67
6449;BME280;3257;52.298;13.690;2022-08-01T13:18:32;75481.97;;;-144.77;57.37
6449;BME280;3257;52.298;13.690;2022-08-01T13:21:36;75448.19;;;-144.77;55.91
6449;BME280;3257;52.298;13.690;2022-08-01T13:24:27;75450.16;;;-144.77;56.28
6449;BME280;3257;52.298;13.690;2022-08-01T13:26:59;75446.19;;;-144.77;56.23
6449;BME280;3257;52.298;13.690;2022-08-01T13:29:38;75422.34;;;-144.77;54.24
6449;BME280;3257;52.298;13.690;2022-08-01T13:32:21;75430.31;;;-144.77;52.69
6449;BME280;3257;52.298;13.690;2022-08-01T13:35:03;75444.22;;;-144.77;52.68
6449;BME280;3257;52.298;13.690;2022-08-01T13:37:31;75416.41;;;-144.77;51.19
6449;BME280;3257;52.298;13.690;2022-08-01T13:39:58;75386.59;;;-144.77;50.32
6449;BME280;3257;52.298;13.690;2022-08-01T13:42:25;75390.56;;;-144.77;50.22
6449;BME280;3257;52.298;13.690;2022-08-01T13:44:51;75396.53;;;-144.77;49.43
6449;BME280;3257;52.298;13.690;2022-08-01T13:47:25;75362.75;;;-144.77;49.42
6449;BME280;3257;52.298;13.690;2022-08-01T13:49:57;75323.03;;;-144.77;48.67